sensor_id;sensor_type;location;lat;lon;timestamp;temperature;humidity
78571;SHT31;67861;51.966;5.672;2023-09-08T00:00:49;25.2;53.2
78571;SHT31;67861;51.966;5.672;2023-09-08T00:03:18;25.2;53.2
78571;SHT31;67861;51.966;5.672;2023-09-08T00:05:48;25.1;53.1
78571;SHT31;67861;51.966;5.672;2023-09-08T00:08:16;25.1;53.2
78571;SHT31;67861;51.966;5.672;2023-09-08T00:10:45;25.1;53.2
78571;SHT31;67861;51.966;5.672;2023-09-08T00:13:14;25.0;53.5
78571;SHT31;67861;51.966;5.672;2023-09-08T00:15:42;25.0;53.3
78571;SHT31;67861;51.966;5.672;2023-09-08T00:18:11;25.0;53.4
78571;SHT31;67861;51.966;5.672;2023-09-08T00:20:40;24.9;53.3
78571;SHT31;67861;51.966;5.672;2023-09-08T00:23:09;24.9;53.3
78571;SHT31;67861;51.966;5.672;2023-09-08T00:25:37;24.8;53.7
78571;SHT31;67861;51.966;5.672;2023-09-08T00:28:06;24.8;53.7
78571;SHT31;67861;51.966;5.672;2023-09-08T00:30:34;24.8;53.5
78571;SHT31;67861;51.966;5.672;2023-09-08T00:33:03;24.7;53.7
78571;SHT31;67861;51.966;5.672;2023-09-08T00:35:35;24.7;53.9
78571;SHT31;67861;51.966;5.672;2023-09-08T00:38:03;24.7;53.8
78571;SHT31;67861;51.966;5.672;2023-09-08T00:40:32;24.6;53.8
78571;SHT31;67861;51.966;5.672;2023-09-08T00:43:01;24.6;54.0
78571;SHT31;67861;51.966;5.672;2023-09-08T00:45:29;24.5;54.0
78571;SHT31;67861;51.966;5.672;2023-09-08T00:47:58;24.5;54.0
78571;SHT31;67861;51.966;5.672;2023-09-08T00:50:27;24.5;54.2
78571;SHT31;67861;51.966;5.672;2023-09-08T00:52:56;24.4;54.2
78571;SHT31;67861;51.966;5.672;2023-09-08T00:55:25;24.4;54.4
78571;SHT31;67861;51.966;5.672;2023-09-08T00:57:53;24.4;54.4
78571;SHT31;67861;51.966;5.672;2023-09-08T01:00:22;24.4;54.5
78571;SHT31;67861;51.966;5.672;2023-09-08T01:02:50;24.3;54.5
78571;SHT31;67861;51.966;5.672;2023-09-08T01:05:19;24.3;54.7
78571;SHT31;67861;51.966;5.672;2023-09-08T01:07:49;24.3;54.5
78571;SHT31;67861;51.966;5.672;2023-09-08T01:10:18;24.3;54.5
78571;SHT31;67861;51.966;5.672;2023-09-08T01:12:47;24.2;54.6
78571;SHT31;67861;51.966;5.672;2023-09-08T01:15:16;24.2;54.6
78571;SHT31;67861;51.966;5.672;2023-09-08T01:17:44;24.2;54.6
78571;SHT31;67861;51.966;5.672;2023-09-08T01:20:22;24.2;54.8
78571;SHT31;67861;51.966;5.672;2023-09-08T01:23:08;24.1;54.7
78571;SHT31;67861;51.966;5.672;2023-09-08T01:25:40;24.1;55.0
78571;SHT31;67861;51.966;5.672;2023-09-08T01:28:12;24.1;54.9
78571;SHT31;67861;51.966;5.672;2023-09-08T01:30:43;24.1;55.0
78571;SHT31;67861;51.966;5.672;2023-09-08T01:33:13;24.0;55.1
78571;SHT31;67861;51.966;5.672;2023-09-08T01:35:42;24.0;55.1
78571;SHT31;67861;51.966;5.672;2023-09-08T01:38:11;24.0;55.1
78571;SHT31;67861;51.966;5.672;2023-09-08T01:40:40;24.0;55.3
78571;SHT31;67861;51.966;5.672;2023-09-08T01:43:10;24.0;55.0
78571;SHT31;67861;51.966;5.672;2023-09-08T01:45:39;23.9;55.1
78571;SHT31;67861;51.966;5.672;2023-09-08T01:48:09;23.9;55.2
78571;SHT31;67861;51.966;5.672;2023-09-08T01:50:37;23.9;55.3
78571;SHT31;67861;51.966;5.672;2023-09-08T01:53:06;23.9;55.4
78571;SHT31;67861;51.966;5.672;2023-09-08T01:55:34;23.9;55.5
78571;SHT31;67861;51.966;5.672;2023-09-08T01:58:03;23.9;55.4
78571;SHT31;67861;51.966;5.672;2023-09-08T02:00:31;23.8;55.3
78571;SHT31;67861;51.966;5.672;2023-09-08T02:03:00;23.8;55.2
78571;SHT31;67861;51.966;5.672;2023-09-08T02:05:28;23.8;55.2
78571;SHT31;67861;51.966;5.672;2023-09-08T02:07:57;23.8;55.3
78571;SHT31;67861;51.966;5.672;2023-09-08T02:10:25;23.8;55.4
78571;SHT31;67861;51.966;5.672;2023-09-08T02:12:54;23.8;55.5
78571;SHT31;67861;51.966;5.672;2023-09-08T02:15:22;23.7;55.4
78571;SHT31;67861;51.966;5.672;2023-09-08T02:17:52;23.7;55.5
78571;SHT31;67861;51.966;5.672;2023-09-08T02:20:22;23.7;55.7
78571;SHT31;67861;51.966;5.672;2023-09-08T02:22:54;23.7;55.8
78571;SHT31;67861;51.966;5.672;2023-09-08T02:25:24;23.6;55.8
78571;SHT31;67861;51.966;5.672;2023-09-08T02:27:53;23.6;55.9
78571;SHT31;67861;51.966;5.672;2023-09-08T02:30:21;23.6;55.9
78571;SHT31;67861;51.966;5.672;2023-09-08T02:32:50;23.5;56.1
78571;SHT31;67861;51.966;5.672;2023-09-08T02:35:20;23.5;56.3
78571;SHT31;67861;51.966;5.672;2023-09-08T02:37:48;23.5;56.3
78571;SHT31;67861;51.966;5.672;2023-09-08T02:40:17;23.5;56.4
78571;SHT31;67861;51.966;5.672;2023-09-08T02:42:47;23.4;56.5
78571;SHT31;67861;51.966;5.672;2023-09-08T02:45:15;23.4;56.4
78571;SHT31;67861;51.966;5.672;2023-09-08T02:47:44;23.4;56.5
78571;SHT31;67861;51.966;5.672;2023-09-08T02:50:12;23.4;56.8
78571;SHT31;67861;51.966;5.672;2023-09-08T02:52:41;23.4;56.7
78571;SHT31;67861;51.966;5.672;2023-09-08T02:55:09;23.3;56.8
78571;SHT31;67861;51.966;5.672;2023-09-08T02:57:38;23.3;56.7
78571;SHT31;67861;51.966;5.672;2023-09-08T03:00:07;23.3;56.7
78571;SHT31;67861;51.966;5.672;2023-09-08T03:02:36;23.3;56.5
78571;SHT31;67861;51.966;5.672;2023-09-08T03:05:05;23.3;56.8
78571;SHT31;67861;51.966;5.672;2023-09-08T03:07:33;23.3;57.0
78571;SHT31;67861;51.966;5.672;2023-09-08T03:10:05;23.3;56.8
78571;SHT31;67861;51.966;5.672;2023-09-08T03:12:34;23.2;56.9
78571;SHT31;67861;51.966;5.672;2023-09-08T03:15:02;23.2;56.8
78571;SHT31;67861;51.966;5.672;2023-09-08T03:17:31;23.2;57.1
78571;SHT31;67861;51.966;5.672;2023-09-08T03:20:00;23.2;57.1
78571;SHT31;67861;51.966;5.672;2023-09-08T03:22:33;23.2;57.4
78571;SHT31;67861;51.966;5.672;2023-09-08T03:25:02;23.1;57.2
78571;SHT31;67861;51.966;5.672;2023-09-08T03:27:32;23.1;57.3
78571;SHT31;67861;51.966;5.672;2023-09-08T03:30:00;23.1;57.4
78571;SHT31;67861;51.966;5.672;2023-09-08T03:32:29;23.1;57.2
78571;SHT31;67861;51.966;5.672;2023-09-08T03:34:58;23.0;57.3
78571;SHT31;67861;51.966;5.672;2023-09-08T03:37:26;23.0;57.2
78571;SHT31;67861;51.966;5.672;2023-09-08T03:39:55;23.0;57.4
78571;SHT31;67861;51.966;5.672;2023-09-08T03:42:23;23.0;57.5
78571;SHT31;67861;51.966;5.672;2023-09-08T03:44:52;23.0;57.6
78571;SHT31;67861;51.966;5.672;2023-09-08T03:47:20;22.9;57.6
78571;SHT31;67861;51.966;5.672;2023-09-08T03:49:50;22.9;57.7
78571;SHT31;67861;51.966;5.672;2023-09-08T03:52:20;22.9;57.6
78571;SHT31;67861;51.966;5.672;2023-09-08T03:54:49;22.9;57.7
78571;SHT31;67861;51.966;5.672;2023-09-08T03:57:18;22.9;57.8
78571;SHT31;67861;51.966;5.672;2023-09-08T03:59:46;22.9;57.9
78571;SHT31;67861;51.966;5.672;2023-09-08T04:02:15;22.8;57.8
78571;SHT31;67861;51.966;5.672;2023-09-08T04:04:43;22.8;57.7
78571;SHT31;67861;51.966;5.672;2023-09-08T04:07:12;22.8;57.7
78571;SHT31;67861;51.966;5.672;2023-09-08T04:09:40;22.8;57.8
78571;SHT31;67861;51.966;5.672;2023-09-08T04:12:09;22.8;57.8
78571;SHT31;67861;51.966;5.672;2023-09-08T04:14:38;22.8;57.8
78571;SHT31;67861;51.966;5.672;2023-09-08T04:17:06;22.8;57.8
78571;SHT31;67861;51.966;5.672;2023-09-08T04:19:37;22.8;57.9
78571;SHT31;67861;51.966;5.672;2023-09-08T04:22:05;22.8;57.8
78571;SHT31;67861;51.966;5.672;2023-09-08T04:24:37;22.7;57.8
78571;SHT31;67861;51.966;5.672;2023-09-08T04:27:06;22.7;57.9
78571;SHT31;67861;51.966;5.672;2023-09-08T04:29:35;22.7;58.1
78571;SHT31;67861;51.966;5.672;2023-09-08T04:32:04;22.7;58.5
78571;SHT31;67861;51.966;5.672;2023-09-08T04:34:35;22.6;58.5
78571;SHT31;67861;51.966;5.672;2023-09-08T04:37:03;22.6;58.3
78571;SHT31;67861;51.966;5.672;2023-09-08T04:39:33;22.6;58.4
78571;SHT31;67861;51.966;5.672;2023-09-08T04:42:03;22.6;58.5
78571;SHT31;67861;51.966;5.672;2023-09-08T04:44:32;22.6;58.5
78571;SHT31;67861;51.966;5.672;2023-09-08T04:47:01;22.6;58.7
78571;SHT31;67861;51.966;5.672;2023-09-08T04:49:29;22.5;58.8
78571;SHT31;67861;51.966;5.672;2023-09-08T04:51:58;22.5;58.8
78571;SHT31;67861;51.966;5.672;2023-09-08T04:54:26;22.5;58.6
78571;SHT31;67861;51.966;5.672;2023-09-08T04:56:55;22.5;58.5
78571;SHT31;67861;51.966;5.672;2023-09-08T04:59:27;22.5;58.7
78571;SHT31;67861;51.966;5.672;2023-09-08T05:01:55;22.5;58.6
78571;SHT31;67861;51.966;5.672;2023-09-08T05:04:24;22.5;58.8
78571;SHT31;67861;51.966;5.672;2023-09-08T05:06:52;22.5;58.8
78571;SHT31;67861;51.966;5.672;2023-09-08T05:09:21;22.4;58.7
78571;SHT31;67861;51.966;5.672;2023-09-08T05:11:49;22.4;58.7
78571;SHT31;67861;51.966;5.672;2023-09-08T05:14:20;22.4;58.9
78571;SHT31;67861;51.966;5.672;2023-09-08T05:16:51;22.4;58.8
78571;SHT31;67861;51.966;5.672;2023-09-08T05:19:22;22.4;59.0
78571;SHT31;67861;51.966;5.672;2023-09-08T05:21:54;22.4;58.8
78571;SHT31;67861;51.966;5.672;2023-09-08T05:24:23;22.3;59.0
78571;SHT31;67861;51.966;5.672;2023-09-08T05:26:53;22.3;59.1
78571;SHT31;67861;51.966;5.672;2023-09-08T05:29:22;22.3;59.3
78571;SHT31;67861;51.966;5.672;2023-09-08T05:31:50;22.3;59.2
78571;SHT31;67861;51.966;5.672;2023-09-08T05:34:19;22.3;59.1
78571;SHT31;67861;51.966;5.672;2023-09-08T05:36:48;22.3;59.1
78571;SHT31;67861;51.966;5.672;2023-09-08T05:39:16;22.3;59.7
78571;SHT31;67861;51.966;5.672;2023-09-08T05:41:45;22.3;59.6
78571;SHT31;67861;51.966;5.672;2023-09-08T05:44:14;22.3;59.8
78571;SHT31;67861;51.966;5.672;2023-09-08T05:46:44;22.3;59.8
78571;SHT31;67861;51.966;5.672;2023-09-08T05:49:13;22.3;59.9
78571;SHT31;67861;51.966;5.672;2023-09-08T05:51:44;22.3;59.8
78571;SHT31;67861;51.966;5.672;2023-09-08T05:54:12;22.3;60.0
78571;SHT31;67861;51.966;5.672;2023-09-08T05:56:41;22.3;59.8
78571;SHT31;67861;51.966;5.672;2023-09-08T05:59:09;22.3;60.3
78571;SHT31;67861;51.966;5.672;2023-09-08T06:01:38;22.3;60.6
78571;SHT31;67861;51.966;5.672;2023-09-08T06:04:07;22.3;60.5
78571;SHT31;67861;51.966;5.672;2023-09-08T06:06:36;22.3;60.6
78571;SHT31;67861;51.966;5.672;2023-09-08T06:09:05;22.3;60.7
78571;SHT31;67861;51.966;5.672;2023-09-08T06:11:35;22.3;61.0
78571;SHT31;67861;51.966;5.672;2023-09-08T06:14:03;22.3;61.0
78571;SHT31;67861;51.966;5.672;2023-09-08T06:16:33;22.3;61.0
78571;SHT31;67861;51.966;5.672;2023-09-08T06:19:02;22.3;61.0
78571;SHT31;67861;51.966;5.672;2023-09-08T06:21:30;22.3;61.3
78571;SHT31;67861;51.966;5.672;2023-09-08T06:23:59;22.3;61.4
78571;SHT31;67861;51.966;5.672;2023-09-08T06:26:28;22.3;61.7
78571;SHT31;67861;51.966;5.672;2023-09-08T06:28:56;22.3;61.6
78571;SHT31;67861;51.966;5.672;2023-09-08T06:31:25;22.3;61.9
78571;SHT31;67861;51.966;5.672;2023-09-08T06:33:53;22.3;61.6
78571;SHT31;67861;51.966;5.672;2023-09-08T06:36:21;22.3;61.9
78571;SHT31;67861;51.966;5.672;2023-09-08T06:38:50;22.4;61.8
78571;SHT31;67861;51.966;5.672;2023-09-08T06:41:18;22.4;62.0
78571;SHT31;67861;51.966;5.672;2023-09-08T06:43:49;22.4;61.7
78571;SHT31;67861;51.966;5.672;2023-09-08T06:46:18;22.4;61.8
78571;SHT31;67861;51.966;5.672;2023-09-08T06:48:46;22.5;61.9
78571;SHT31;67861;51.966;5.672;2023-09-08T06:51:15;22.5;61.4
78571;SHT31;67861;51.966;5.672;2023-09-08T06:53:44;22.5;61.6
78571;SHT31;67861;51.966;5.672;2023-09-08T06:56:17;22.6;61.7
78571;SHT31;67861;51.966;5.672;2023-09-08T06:58:46;22.6;61.7
78571;SHT31;67861;51.966;5.672;2023-09-08T07:01:14;22.6;60.8
78571;SHT31;67861;51.966;5.672;2023-09-08T07:03:43;22.6;61.8
78571;SHT31;67861;51.966;5.672;2023-09-08T07:06:14;22.7;61.3
78571;SHT31;67861;51.966;5.672;2023-09-08T07:08:42;22.7;61.2
78571;SHT31;67861;51.966;5.672;2023-09-08T07:11:11;22.8;61.4
78571;SHT31;67861;51.966;5.672;2023-09-08T07:13:39;22.8;61.5
78571;SHT31;67861;51.966;5.672;2023-09-08T07:16:08;22.8;61.9
78571;SHT31;67861;51.966;5.672;2023-09-08T07:18:37;22.9;61.4
78571;SHT31;67861;51.966;5.672;2023-09-08T07:21:07;22.9;61.6
78571;SHT31;67861;51.966;5.672;2023-09-08T07:23:35;23.0;61.8
78571;SHT31;67861;51.966;5.672;2023-09-08T07:26:04;23.0;61.8
78571;SHT31;67861;51.966;5.672;2023-09-08T07:28:33;23.1;61.4
78571;SHT31;67861;51.966;5.672;2023-09-08T07:31:05;23.1;61.6
78571;SHT31;67861;51.966;5.672;2023-09-08T07:33:35;23.2;61.6
78571;SHT31;67861;51.966;5.672;2023-09-08T07:36:06;23.2;60.9
78571;SHT31;67861;51.966;5.672;2023-09-08T07:38:35;23.3;61.2
78571;SHT31;67861;51.966;5.672;2023-09-08T07:41:04;23.3;61.3
78571;SHT31;67861;51.966;5.672;2023-09-08T07:43:34;23.3;61.8
78571;SHT31;67861;51.966;5.672;2023-09-08T07:46:06;23.4;62.1
78571;SHT31;67861;51.966;5.672;2023-09-08T07:48:35;23.5;61.3
78571;SHT31;67861;51.966;5.672;2023-09-08T07:51:03;23.5;61.4
78571;SHT31;67861;51.966;5.672;2023-09-08T07:53:32;23.5;61.7
78571;SHT31;67861;51.966;5.672;2023-09-08T07:56:00;23.6;61.4
78571;SHT31;67861;51.966;5.672;2023-09-08T07:58:30;23.6;61.0
78571;SHT31;67861;51.966;5.672;2023-09-08T08:00:59;23.7;61.2
78571;SHT31;67861;51.966;5.672;2023-09-08T08:03:27;23.8;61.2
78571;SHT31;67861;51.966;5.672;2023-09-08T08:05:56;23.8;61.3
78571;SHT31;67861;51.966;5.672;2023-09-08T08:08:25;23.9;60.7
78571;SHT31;67861;51.966;5.672;2023-09-08T08:10:53;23.9;60.7
78571;SHT31;67861;51.966;5.672;2023-09-08T08:13:22;24.0;60.6
78571;SHT31;67861;51.966;5.672;2023-09-08T08:15:50;24.0;60.6
78571;SHT31;67861;51.966;5.672;2023-09-08T08:18:19;24.1;60.9
78571;SHT31;67861;51.966;5.672;2023-09-08T08:20:47;24.2;61.2
78571;SHT31;67861;51.966;5.672;2023-09-08T08:23:16;24.2;61.1
78571;SHT31;67861;51.966;5.672;2023-09-08T08:25:44;24.3;60.6
78571;SHT31;67861;51.966;5.672;2023-09-08T08:28:13;24.4;60.1
78571;SHT31;67861;51.966;5.672;2023-09-08T08:30:43;24.4;60.3
78571;SHT31;67861;51.966;5.672;2023-09-08T08:33:13;24.5;60.5
78571;SHT31;67861;51.966;5.672;2023-09-08T08:35:52;24.5;60.9
78571;SHT31;67861;51.966;5.672;2023-09-08T08:38:21;24.6;60.5
78571;SHT31;67861;51.966;5.672;2023-09-08T08:40:52;24.7;60.2
78571;SHT31;67861;51.966;5.672;2023-09-08T08:43:21;24.7;60.3
78571;SHT31;67861;51.966;5.672;2023-09-08T08:45:54;24.8;60.1
78571;SHT31;67861;51.966;5.672;2023-09-08T08:48:26;24.9;60.3
78571;SHT31;67861;51.966;5.672;2023-09-08T08:50:56;25.0;60.3
78571;SHT31;67861;51.966;5.672;2023-09-08T08:53:27;25.1;59.9
78571;SHT31;67861;51.966;5.672;2023-09-08T08:55:58;25.1;59.7
78571;SHT31;67861;51.966;5.672;2023-09-08T08:58:29;25.2;59.6
78571;SHT31;67861;51.966;5.672;2023-09-08T09:00:59;25.3;59.6
78571;SHT31;67861;51.966;5.672;2023-09-08T09:03:29;25.4;59.4
78571;SHT31;67861;51.966;5.672;2023-09-08T09:05:58;25.5;59.6
78571;SHT31;67861;51.966;5.672;2023-09-08T09:08:28;25.6;59.5
78571;SHT31;67861;51.966;5.672;2023-09-08T09:10:57;25.7;59.4
78571;SHT31;67861;51.966;5.672;2023-09-08T09:13:25;25.8;59.3
78571;SHT31;67861;51.966;5.672;2023-09-08T09:15:58;26.0;58.8
78571;SHT31;67861;51.966;5.672;2023-09-08T09:18:29;26.1;59.3
78571;SHT31;67861;51.966;5.672;2023-09-08T09:21:00;26.3;58.3
78571;SHT31;67861;51.966;5.672;2023-09-08T09:23:30;26.4;57.5
78571;SHT31;67861;51.966;5.672;2023-09-08T09:26:00;26.6;57.4
78571;SHT31;67861;51.966;5.672;2023-09-08T09:28:30;26.7;56.5
78571;SHT31;67861;51.966;5.672;2023-09-08T09:30:58;26.9;56.9
78571;SHT31;67861;51.966;5.672;2023-09-08T09:33:28;27.0;56.6
78571;SHT31;67861;51.966;5.672;2023-09-08T09:35:57;27.2;56.2
78571;SHT31;67861;51.966;5.672;2023-09-08T09:38:27;27.3;56.0
78571;SHT31;67861;51.966;5.672;2023-09-08T09:40:56;27.5;56.0
78571;SHT31;67861;51.966;5.672;2023-09-08T09:43:28;27.7;54.8
78571;SHT31;67861;51.966;5.672;2023-09-08T09:45:57;27.9;54.5
78571;SHT31;67861;51.966;5.672;2023-09-08T09:48:27;28.1;54.3
78571;SHT31;67861;51.966;5.672;2023-09-08T09:50:56;28.2;53.8
78571;SHT31;67861;51.966;5.672;2023-09-08T09:53:25;28.4;53.8
78571;SHT31;67861;51.966;5.672;2023-09-08T09:55:54;28.5;53.5
78571;SHT31;67861;51.966;5.672;2023-09-08T09:58:25;28.7;53.4
78571;SHT31;67861;51.966;5.672;2023-09-08T10:00:54;28.9;52.5
78571;SHT31;67861;51.966;5.672;2023-09-08T10:03:23;29.1;52.3
78571;SHT31;67861;51.966;5.672;2023-09-08T10:05:55;29.3;51.2
78571;SHT31;67861;51.966;5.672;2023-09-08T10:08:25;29.5;50.8
78571;SHT31;67861;51.966;5.672;2023-09-08T10:10:56;29.6;51.2
78571;SHT31;67861;51.966;5.672;2023-09-08T10:13:28;29.8;50.9
78571;SHT31;67861;51.966;5.672;2023-09-08T10:16:01;29.9;50.6
78571;SHT31;67861;51.966;5.672;2023-09-08T10:18:33;30.1;49.5
78571;SHT31;67861;51.966;5.672;2023-09-08T10:21:04;30.3;49.3
78571;SHT31;67861;51.966;5.672;2023-09-08T10:23:38;30.5;48.5
78571;SHT31;67861;51.966;5.672;2023-09-08T10:26:11;30.7;49.0
78571;SHT31;67861;51.966;5.672;2023-09-08T10:28:40;30.9;48.1
78571;SHT31;67861;51.966;5.672;2023-09-08T10:31:09;31.0;47.7
78571;SHT31;67861;51.966;5.672;2023-09-08T10:33:38;31.2;46.3
78571;SHT31;67861;51.966;5.672;2023-09-08T10:36:09;31.4;46.5
78571;SHT31;67861;51.966;5.672;2023-09-08T10:38:39;31.5;47.2
78571;SHT31;67861;51.966;5.672;2023-09-08T10:41:29;31.7;46.0
78571;SHT31;67861;51.966;5.672;2023-09-08T10:44:02;31.8;45.4
78571;SHT31;67861;51.966;5.672;2023-09-08T10:46:33;31.9;45.0
78571;SHT31;67861;51.966;5.672;2023-09-08T10:49:06;32.0;44.8
78571;SHT31;67861;51.966;5.672;2023-09-08T10:51:36;32.2;44.5
78571;SHT31;67861;51.966;5.672;2023-09-08T10:54:05;32.2;45.1
78571;SHT31;67861;51.966;5.672;2023-09-08T10:56:56;32.3;45.2
78571;SHT31;67861;51.966;5.672;2023-09-08T10:59:36;32.4;44.5
78571;SHT31;67861;51.966;5.672;2023-09-08T11:02:06;32.5;44.3
78571;SHT31;67861;51.966;5.672;2023-09-08T11:04:36;32.6;44.4
78571;SHT31;67861;51.966;5.672;2023-09-08T11:07:07;32.7;45.0
78571;SHT31;67861;51.966;5.672;2023-09-08T11:09:37;32.8;44.4
78571;SHT31;67861;51.966;5.672;2023-09-08T11:12:07;32.8;44.7
78571;SHT31;67861;51.966;5.672;2023-09-08T11:14:36;32.9;44.1
78571;SHT31;67861;51.966;5.672;2023-09-08T11:17:05;33.0;43.4
78571;SHT31;67861;51.966;5.672;2023-09-08T11:19:45;33.1;43.5
78571;SHT31;67861;51.966;5.672;2023-09-08T11:22:16;33.2;43.4
78571;SHT31;67861;51.966;5.672;2023-09-08T11:24:45;33.2;42.5
78571;SHT31;67861;51.966;5.672;2023-09-08T11:27:14;33.3;42.9
78571;SHT31;67861;51.966;5.672;2023-09-08T11:29:43;33.3;44.1
78571;SHT31;67861;51.966;5.672;2023-09-08T11:32:12;33.4;43.5
78571;SHT31;67861;51.966;5.672;2023-09-08T11:34:41;33.5;43.8
78571;SHT31;67861;51.966;5.672;2023-09-08T11:37:11;33.5;43.6
78571;SHT31;67861;51.966;5.672;2023-09-08T11:39:41;33.6;42.9
78571;SHT31;67861;51.966;5.672;2023-09-08T11:42:12;33.7;42.7
78571;SHT31;67861;51.966;5.672;2023-09-08T11:44:42;33.8;42.6
78571;SHT31;67861;51.966;5.672;2023-09-08T11:47:11;33.8;42.1
78571;SHT31;67861;51.966;5.672;2023-09-08T11:49:41;33.9;42.4
78571;SHT31;67861;51.966;5.672;2023-09-08T11:52:10;33.9;42.5
78571;SHT31;67861;51.966;5.672;2023-09-08T11:54:38;34.0;42.5
78571;SHT31;67861;51.966;5.672;2023-09-08T11:57:09;34.0;42.2
78571;SHT31;67861;51.966;5.672;2023-09-08T11:59:39;34.0;41.9
78571;SHT31;67861;51.966;5.672;2023-09-08T12:02:08;34.1;42.1
78571;SHT31;67861;51.966;5.672;2023-09-08T12:04:37;34.2;42.0
78571;SHT31;67861;51.966;5.672;2023-09-08T12:07:06;34.3;41.9
78571;SHT31;67861;51.966;5.672;2023-09-08T12:09:37;34.4;42.0
78571;SHT31;67861;51.966;5.672;2023-09-08T12:12:11;34.4;41.0
78571;SHT31;67861;51.966;5.672;2023-09-08T12:14:42;34.5;40.7
78571;SHT31;67861;51.966;5.672;2023-09-08T12:17:10;34.6;41.5
78571;SHT31;67861;51.966;5.672;2023-09-08T12:19:42;34.6;40.7
78571;SHT31;67861;51.966;5.672;2023-09-08T12:22:10;34.7;41.7
78571;SHT31;67861;51.966;5.672;2023-09-08T12:24:55;34.7;40.9
78571;SHT31;67861;51.966;5.672;2023-09-08T12:27:26;34.8;41.2
78571;SHT31;67861;51.966;5.672;2023-09-08T12:29:58;34.8;41.2
78571;SHT31;67861;51.966;5.672;2023-09-08T12:32:29;34.9;40.7
78571;SHT31;67861;51.966;5.672;2023-09-08T12:35:03;35.0;39.8
78571;SHT31;67861;51.966;5.672;2023-09-08T12:37:33;35.0;39.3
78571;SHT31;67861;51.966;5.672;2023-09-08T12:40:03;35.1;39.3
78571;SHT31;67861;51.966;5.672;2023-09-08T12:42:32;35.1;39.6
78571;SHT31;67861;51.966;5.672;2023-09-08T12:45:00;35.1;39.3
78571;SHT31;67861;51.966;5.672;2023-09-08T12:47:29;35.2;39.3
78571;SHT31;67861;51.966;5.672;2023-09-08T12:49:57;35.2;40.1
78571;SHT31;67861;51.966;5.672;2023-09-08T12:52:26;35.2;40.1
78571;SHT31;67861;51.966;5.672;2023-09-08T12:54:54;35.3;40.1
78571;SHT31;67861;51.966;5.672;2023-09-08T12:57:23;35.3;40.4
78571;SHT31;67861;51.966;5.672;2023-09-08T12:59:52;35.4;39.8
78571;SHT31;67861;51.966;5.672;2023-09-08T13:02:21;35.4;40.3
78571;SHT31;67861;51.966;5.672;2023-09-08T13:04:49;35.5;40.0
78571;SHT31;67861;51.966;5.672;2023-09-08T13:07:18;35.5;40.7
78571;SHT31;67861;51.966;5.672;2023-09-08T13:09:48;35.5;38.7
78571;SHT31;67861;51.966;5.672;2023-09-08T13:12:17;35.6;39.7
78571;SHT31;67861;51.966;5.672;2023-09-08T13:14:46;35.6;40.0
78571;SHT31;67861;51.966;5.672;2023-09-08T13:17:15;35.7;40.1
78571;SHT31;67861;51.966;5.672;2023-09-08T13:19:45;35.7;39.8
78571;SHT31;67861;51.966;5.672;2023-09-08T13:22:13;35.8;39.5
78571;SHT31;67861;51.966;5.672;2023-09-08T13:24:42;35.8;39.5
78571;SHT31;67861;51.966;5.672;2023-09-08T13:27:10;35.9;40.8
78571;SHT31;67861;51.966;5.672;2023-09-08T13:29:42;35.9;39.9
78571;SHT31;67861;51.966;5.672;2023-09-08T13:32:10;35.9;39.7
78571;SHT31;67861;51.966;5.672;2023-09-08T13:34:39;36.0;38.8
78571;SHT31;67861;51.966;5.672;2023-09-08T13:37:09;36.0;39.4
78571;SHT31;67861;51.966;5.672;2023-09-08T13:39:38;36.0;38.7
78571;SHT31;67861;51.966;5.672;2023-09-08T13:42:08;36.0;38.4
78571;SHT31;67861;51.966;5.672;2023-09-08T13:44:38;36.0;38.6
78571;SHT31;67861;51.966;5.672;2023-09-08T13:47:06;36.0;38.4
78571;SHT31;67861;51.966;5.672;2023-09-08T13:49:35;36.0;38.7
78571;SHT31;67861;51.966;5.672;2023-09-08T13:52:03;36.0;39.1
78571;SHT31;67861;51.966;5.672;2023-09-08T13:54:32;36.0;39.8
78571;SHT31;67861;51.966;5.672;2023-09-08T13:57:02;36.0;39.1
78571;SHT31;67861;51.966;5.672;2023-09-08T13:59:31;36.1;38.0
78571;SHT31;67861;51.966;5.672;2023-09-08T14:02:01;36.1;38.9
78571;SHT31;67861;51.966;5.672;2023-09-08T14:04:30;36.1;39.2
78571;SHT31;67861;51.966;5.672;2023-09-08T14:06:58;36.1;39.4
78571;SHT31;67861;51.966;5.672;2023-09-08T14:09:27;36.1;39.9
78571;SHT31;67861;51.966;5.672;2023-09-08T14:11:56;36.1;38.7
78571;SHT31;67861;51.966;5.672;2023-09-08T14:14:24;36.1;39.1
78571;SHT31;67861;51.966;5.672;2023-09-08T14:16:53;36.2;38.8
78571;SHT31;67861;51.966;5.672;2023-09-08T14:19:21;36.2;38.8
78571;SHT31;67861;51.966;5.672;2023-09-08T14:21:50;36.2;39.2
78571;SHT31;67861;51.966;5.672;2023-09-08T14:24:18;36.2;38.9
78571;SHT31;67861;51.966;5.672;2023-09-08T14:26:47;36.2;38.8
78571;SHT31;67861;51.966;5.672;2023-09-08T14:29:16;36.2;39.4
78571;SHT31;67861;51.966;5.672;2023-09-08T14:31:44;36.2;39.5
78571;SHT31;67861;51.966;5.672;2023-09-08T14:34:13;36.2;38.5
78571;SHT31;67861;51.966;5.672;2023-09-08T14:36:42;36.2;38.9
78571;SHT31;67861;51.966;5.672;2023-09-08T14:39:10;36.2;38.8
78571;SHT31;67861;51.966;5.672;2023-09-08T14:41:39;36.2;38.9
78571;SHT31;67861;51.966;5.672;2023-09-08T14:44:08;36.2;38.5
78571;SHT31;67861;51.966;5.672;2023-09-08T14:46:36;36.2;38.4
78571;SHT31;67861;51.966;5.672;2023-09-08T14:49:07;36.2;38.3
78571;SHT31;67861;51.966;5.672;2023-09-08T14:51:36;36.2;37.5
78571;SHT31;67861;51.966;5.672;2023-09-08T14:54:04;36.2;37.5
78571;SHT31;67861;51.966;5.672;2023-09-08T14:56:34;36.2;38.1
78571;SHT31;67861;51.966;5.672;2023-09-08T14:59:03;36.2;38.2
78571;SHT31;67861;51.966;5.672;2023-09-08T15:01:31;36.1;37.9
78571;SHT31;67861;51.966;5.672;2023-09-08T15:04:00;36.1;39.0
78571;SHT31;67861;51.966;5.672;2023-09-08T15:06:28;36.1;38.5
78571;SHT31;67861;51.966;5.672;2023-09-08T15:08:57;36.1;38.4
78571;SHT31;67861;51.966;5.672;2023-09-08T15:11:25;36.0;39.3
78571;SHT31;67861;51.966;5.672;2023-09-08T15:13:54;36.0;38.1
78571;SHT31;67861;51.966;5.672;2023-09-08T15:16:23;36.0;38.0
78571;SHT31;67861;51.966;5.672;2023-09-08T15:18:52;35.9;38.2
78571;SHT31;67861;51.966;5.672;2023-09-08T15:21:21;35.9;39.1
78571;SHT31;67861;51.966;5.672;2023-09-08T15:23:53;35.8;38.8
78571;SHT31;67861;51.966;5.672;2023-09-08T15:26:22;35.8;38.3
78571;SHT31;67861;51.966;5.672;2023-09-08T15:28:50;35.7;39.3
78571;SHT31;67861;51.966;5.672;2023-09-08T15:31:19;35.7;38.6
78571;SHT31;67861;51.966;5.672;2023-09-08T15:33:48;35.7;38.2
78571;SHT31;67861;51.966;5.672;2023-09-08T15:36:19;35.7;39.0
78571;SHT31;67861;51.966;5.672;2023-09-08T15:38:48;35.6;39.1
78571;SHT31;67861;51.966;5.672;2023-09-08T15:41:17;35.6;38.8
78571;SHT31;67861;51.966;5.672;2023-09-08T15:43:49;35.6;39.1
78571;SHT31;67861;51.966;5.672;2023-09-08T15:46:19;35.5;39.1
78571;SHT31;67861;51.966;5.672;2023-09-08T15:48:48;35.5;39.8
78571;SHT31;67861;51.966;5.672;2023-09-08T15:51:17;35.4;39.6
78571;SHT31;67861;51.966;5.672;2023-09-08T15:53:47;35.4;39.0
78571;SHT31;67861;51.966;5.672;2023-09-08T15:56:16;35.3;40.6
78571;SHT31;67861;51.966;5.672;2023-09-08T15:58:44;35.3;40.4
78571;SHT31;67861;51.966;5.672;2023-09-08T16:01:13;35.2;39.7
78571;SHT31;67861;51.966;5.672;2023-09-08T16:03:41;35.2;40.0
78571;SHT31;67861;51.966;5.672;2023-09-08T16:06:10;35.1;40.2
78571;SHT31;67861;51.966;5.672;2023-09-08T16:08:40;35.1;40.0
78571;SHT31;67861;51.966;5.672;2023-09-08T16:11:09;35.1;40.4
78571;SHT31;67861;51.966;5.672;2023-09-08T16:13:38;35.0;40.9
78571;SHT31;67861;51.966;5.672;2023-09-08T16:16:06;35.0;41.0